createdAt,value
2017-11-17T00:00:49.837Z,18.33
2017-11-17T00:03:17.329Z,19.85
2017-11-17T00:05:44.840Z,18.58
2017-11-17T00:08:12.381Z,18.98
2017-11-17T00:10:39.992Z,17.60
2017-11-17T00:13:07.640Z,17.75
2017-11-17T00:15:35.207Z,17.73
2017-11-17T00:18:03.489Z,18.33
2017-11-17T00:20:31.764Z,18.87
2017-11-17T00:23:00.048Z,15.93
2017-11-17T00:25:28.354Z,17.55
2017-11-17T00:27:55.852Z,18.12
2017-11-17T00:30:23.353Z,17.77
2017-11-17T00:32:50.885Z,19.50
2017-11-17T00:35:19.193Z,17.52
2017-11-17T00:37:46.698Z,17.00
2017-11-17T00:40:14.193Z,18.02
2017-11-17T00:42:42.457Z,18.35
2017-11-17T00:45:10.758Z,19.58
2017-11-17T00:47:39.017Z,20.77
2017-11-17T00:50:07.326Z,19.37
2017-11-17T00:52:34.872Z,19.83
2017-11-17T00:55:02.367Z,19.62
2017-11-17T00:57:29.884Z,19.60
2017-11-17T00:59:57.389Z,20.60
2017-11-17T01:02:24.888Z,20.95
2017-11-17T01:04:53.190Z,20.00
2017-11-17T01:07:20.690Z,20.10
2017-11-17T01:09:48.185Z,21.80
2017-11-17T01:12:16.453Z,18.58
2017-11-17T01:14:44.720Z,20.55
2017-11-17T01:17:12.225Z,20.23
2017-11-17T01:19:39.726Z,20.15
2017-11-17T01:22:07.249Z,20.40
2017-11-17T01:24:34.769Z,16.95
2017-11-17T01:27:03.031Z,17.83
2017-11-17T01:29:31.344Z,20.27
2017-11-17T01:31:58.856Z,18.35
2017-11-17T01:34:27.123Z,19.60
2017-11-17T01:36:54.627Z,18.12
2017-11-17T01:39:22.141Z,17.40
2017-11-17T01:41:49.638Z,19.42
2017-11-17T01:44:17.897Z,19.17
2017-11-17T01:46:46.211Z,20.08
2017-11-17T01:49:13.733Z,20.00
2017-11-17T01:51:42.008Z,18.45
2017-11-17T01:54:10.268Z,19.37
2017-11-17T01:56:38.546Z,20.08
2017-11-17T01:59:06.050Z,20.35
2017-11-17T02:01:33.593Z,18.55
2017-11-17T02:04:01.901Z,19.80
2017-11-17T02:06:29.428Z,19.92
2017-11-17T02:08:56.941Z,19.60
2017-11-17T02:11:24.482Z,18.83
2017-11-17T02:13:52.009Z,18.50
2017-11-17T02:16:20.268Z,17.92
2017-11-17T02:18:48.545Z,18.75
2017-11-17T02:21:16.825Z,15.57
2017-11-17T02:23:45.101Z,16.05
2017-11-17T02:26:13.408Z,16.98
2017-11-17T02:28:40.921Z,18.08
2017-11-17T02:31:08.419Z,18.27
2017-11-17T02:33:35.923Z,16.33
2017-11-17T02:36:03.442Z,16.60
2017-11-17T02:38:30.956Z,16.33
2017-11-17T02:40:58.475Z,17.20
2017-11-17T02:43:25.977Z,17.25
2017-11-17T02:45:54.294Z,16.30
2017-11-17T02:48:21.798Z,15.25
2017-11-17T02:50:49.332Z,13.43
2017-11-17T02:53:16.849Z,16.00
2017-11-17T02:55:45.112Z,16.17
2017-11-17T02:58:13.384Z,14.95
2017-11-17T03:00:41.661Z,13.88
2017-11-17T03:03:09.969Z,16.85
2017-11-17T03:05:37.464Z,15.40
2017-11-17T03:08:04.961Z,15.10
2017-11-17T03:10:33.235Z,14.70
2017-11-17T03:13:01.513Z,16.70
2017-11-17T03:15:29.833Z,14.07
2017-11-17T03:17:57.360Z,16.67
2017-11-17T03:20:25.621Z,12.55
2017-11-17T03:22:53.917Z,14.75
2017-11-17T03:25:22.197Z,15.82
2017-11-17T03:27:49.712Z,15.00
2017-11-17T03:30:17.261Z,14.45
2017-11-17T03:32:44.773Z,14.65
2017-11-17T03:35:12.288Z,15.32
2017-11-17T03:37:39.797Z,15.40
2017-11-17T03:40:07.332Z,15.25
2017-11-17T03:42:35.598Z,15.52
2017-11-17T03:45:03.115Z,13.80
2017-11-17T03:47:30.639Z,16.00
2017-11-17T03:49:58.150Z,14.30
2017-11-17T03:52:25.661Z,14.50
2017-11-17T03:54:53.192Z,14.63
2017-11-17T03:57:20.729Z,14.65
2017-11-17T03:59:48.222Z,14.20
2017-11-17T04:02:16.483Z,13.55
2017-11-17T04:04:44.018Z,14.55
2017-11-17T04:07:11.533Z,13.45
2017-11-17T04:09:39.038Z,14.05
2017-11-17T04:12:06.539Z,11.65
2017-11-17T04:14:34.073Z,14.87
2017-11-17T04:17:01.570Z,13.15
2017-11-17T04:19:29.103Z,14.93
2017-11-17T04:21:57.365Z,15.65
2017-11-17T04:24:24.880Z,16.42
2017-11-17T04:26:52.388Z,16.95
2017-11-17T04:29:19.900Z,16.25
2017-11-17T04:31:47.424Z,17.20
2017-11-17T04:34:15.695Z,15.57
2017-11-17T04:36:43.960Z,15.85
2017-11-17T04:39:12.244Z,16.83
2017-11-17T04:41:40.513Z,18.98
2017-11-17T04:44:08.788Z,15.77
2017-11-17T04:46:37.094Z,17.83
2017-11-17T04:49:04.589Z,17.87
2017-11-17T04:51:32.108Z,18.98
2017-11-17T04:53:59.625Z,18.37
2017-11-17T04:56:27.125Z,19.20
2017-11-17T04:58:54.638Z,22.73
2017-11-17T05:01:22.141Z,19.05
2017-11-17T05:03:49.652Z,18.45
2017-11-17T05:06:17.181Z,21.02
2017-11-17T05:08:44.682Z,20.50
2017-11-17T05:11:12.221Z,18.02
2017-11-17T05:13:39.769Z,20.00
2017-11-17T05:16:07.280Z,19.17
2017-11-17T05:18:35.568Z,19.37
2017-11-17T05:21:03.078Z,17.30
2017-11-17T05:23:30.600Z,19.50
2017-11-17T05:25:58.097Z,21.75
2017-11-17T05:28:25.601Z,19.23
2017-11-17T05:30:53.124Z,17.65
2017-11-17T05:33:20.664Z,21.80
2017-11-17T05:35:48.168Z,22.98
2017-11-17T05:38:16.469Z,18.92
2017-11-17T05:40:43.984Z,21.02
2017-11-17T05:43:11.476Z,21.73
2017-11-17T05:45:38.977Z,19.80
2017-11-17T05:48:06.480Z,20.48
2017-11-17T05:50:34.741Z,17.52
2017-11-17T05:53:03.012Z,19.02
2017-11-17T05:55:30.547Z,17.75
2017-11-17T05:57:58.032Z,18.90
2017-11-17T06:00:26.348Z,20.70
2017-11-17T06:02:53.864Z,21.50
2017-11-17T06:05:21.364Z,19.45
2017-11-17T06:07:49.053Z,20.62
2017-11-17T06:10:16.560Z,18.67
2017-11-17T06:12:44.853Z,19.65
2017-11-17T06:15:12.353Z,20.55
2017-11-17T06:17:39.867Z,20.77
2017-11-17T06:20:07.361Z,22.52
2017-11-17T06:22:34.909Z,18.92
2017-11-17T06:25:02.423Z,18.83
2017-11-17T06:27:30.692Z,19.73
2017-11-17T06:29:58.185Z,18.17
2017-11-17T06:32:25.701Z,18.60
2017-11-17T06:34:53.206Z,18.17
2017-11-17T06:37:20.706Z,19.48
2017-11-17T06:39:48.236Z,20.90
2017-11-17T06:42:15.762Z,19.62
2017-11-17T06:44:44.033Z,17.52
2017-11-17T06:47:12.297Z,19.40
2017-11-17T06:49:40.564Z,21.12
2017-11-17T06:52:08.099Z,19.55
2017-11-17T06:54:35.608Z,19.87
2017-11-17T06:57:03.877Z,20.62
2017-11-17T06:59:32.145Z,21.12
2017-11-17T07:02:00.416Z,19.95
2017-11-17T07:04:28.696Z,22.33
2017-11-17T07:06:57.049Z,20.88
2017-11-17T07:09:24.544Z,21.25
2017-11-17T07:11:52.808Z,19.33
2017-11-17T07:14:21.096Z,22.40
2017-11-17T07:16:49.369Z,20.30
2017-11-17T07:19:17.649Z,20.65
2017-11-17T07:21:45.925Z,21.40
2017-11-17T07:24:14.212Z,21.95
2017-11-17T07:26:41.713Z,21.12
2017-11-17T07:29:09.262Z,19.98
2017-11-17T07:31:36.760Z,21.25
2017-11-17T07:34:04.257Z,21.87
2017-11-17T07:36:31.770Z,19.25
2017-11-17T07:38:59.301Z,19.77
2017-11-17T07:41:26.797Z,20.02
2017-11-17T07:43:55.077Z,20.42
2017-11-17T07:46:23.380Z,20.00
2017-11-17T07:48:50.889Z,17.08
2017-11-17T07:51:18.406Z,19.05
2017-11-17T07:53:45.953Z,19.33
2017-11-17T07:56:13.497Z,19.92
2017-11-17T07:58:41.944Z,16.08
2017-11-17T08:01:09.440Z,20.65
2017-11-17T08:03:37.723Z,19.17
2017-11-17T08:06:05.239Z,18.33
2017-11-17T08:11:25.792Z,19.98
2017-11-17T08:13:54.077Z,19.42
2017-11-17T08:16:21.581Z,18.50
2017-11-17T08:18:49.108Z,20.05
2017-11-17T08:21:16.610Z,19.40
2017-11-17T08:23:44.277Z,19.25
2017-11-17T08:26:11.862Z,18.77
2017-11-17T08:28:40.121Z,19.90
2017-11-17T08:31:07.627Z,19.42
2017-11-17T08:33:35.157Z,21.85
2017-11-17T08:36:03.421Z,21.12
2017-11-17T08:38:31.690Z,19.40
2017-11-17T08:40:59.207Z,18.98
2017-11-17T08:46:00.561Z,18.48
2017-11-17T08:48:28.081Z,18.83
2017-11-17T08:50:56.391Z,16.87
2017-11-17T08:53:23.921Z,19.98
2017-11-17T08:55:52.201Z,19.55
2017-11-17T08:58:20.489Z,17.40
2017-11-17T09:00:47.984Z,19.87
2017-11-17T09:03:15.484Z,21.25
2017-11-17T09:05:43.773Z,18.85
2017-11-17T09:08:12.044Z,20.02
2017-11-17T09:10:40.340Z,22.10
2017-11-17T09:13:07.861Z,20.70
2017-11-17T09:15:35.356Z,19.33
2017-11-17T09:18:02.868Z,22.60
2017-11-17T09:20:30.389Z,21.60
2017-11-17T09:22:57.944Z,21.92
2017-11-17T09:25:25.481Z,20.60
2017-11-17T09:27:53.745Z,19.05
2017-11-17T09:30:22.017Z,18.42
2017-11-17T09:32:50.331Z,20.85
2017-11-17T09:35:17.848Z,19.33
2017-11-17T09:37:45.346Z,20.00
2017-11-17T09:40:12.844Z,19.40
2017-11-17T09:42:40.348Z,19.25
2017-11-17T09:45:08.611Z,19.00
2017-11-17T09:47:36.893Z,18.27
2017-11-17T09:50:05.191Z,18.87
2017-11-17T09:52:32.696Z,17.48
2017-11-17T09:55:00.193Z,18.75
2017-11-17T09:57:27.692Z,17.60
2017-11-17T09:59:55.227Z,18.35
2017-11-17T10:02:22.762Z,17.08
2017-11-17T10:04:51.050Z,18.73
2017-11-17T10:07:18.549Z,17.15
2017-11-17T10:09:46.161Z,18.92
2017-11-17T10:12:14.435Z,19.02
2017-11-17T10:14:42.697Z,16.70
2017-11-17T10:17:10.960Z,18.60
2017-11-17T10:19:38.461Z,16.92
2017-11-17T10:22:05.972Z,16.60
2017-11-17T10:24:34.077Z,15.52
2017-11-17T10:27:02.337Z,17.90
2017-11-17T10:29:30.606Z,15.25
2017-11-17T10:31:58.112Z,16.77
2017-11-17T10:34:25.641Z,15.85
2017-11-17T10:36:53.924Z,17.20
2017-11-17T10:39:22.212Z,14.68
2017-11-17T10:41:49.704Z,16.15
2017-11-17T10:44:17.229Z,17.58
2017-11-17T10:46:44.756Z,15.80
2017-11-17T10:49:12.257Z,15.82
2017-11-17T10:51:39.784Z,16.45
2017-11-17T10:54:08.045Z,13.98
2017-11-17T10:56:35.546Z,15.40
2017-11-17T10:59:04.858Z,15.57
2017-11-17T11:01:32.388Z,16.37
2017-11-17T11:04:00.677Z,17.02
2017-11-17T11:06:28.197Z,16.30
2017-11-17T11:08:55.689Z,14.70
2017-11-17T11:11:28.861Z,15.77
2017-11-17T11:13:57.125Z,16.65
2017-11-17T11:16:25.397Z,14.60
2017-11-17T11:18:52.912Z,16.15
2017-11-17T11:21:20.413Z,15.45
2017-11-17T11:23:47.918Z,16.55
2017-11-17T11:26:15.445Z,15.88
2017-11-17T11:28:43.708Z,17.75
2017-11-17T11:31:11.209Z,18.02
2017-11-17T11:33:38.721Z,16.85
2017-11-17T11:36:06.241Z,17.73
2017-11-17T11:38:33.757Z,17.55
2017-11-17T11:41:02.053Z,18.60
2017-11-17T11:43:29.581Z,16.50
2017-11-17T11:45:57.072Z,18.87
2017-11-17T11:48:24.572Z,17.80
2017-11-17T11:50:52.070Z,17.70
2017-11-17T11:53:20.353Z,16.90
2017-11-17T11:55:47.865Z,18.42
2017-11-17T11:58:15.364Z,16.10
2017-11-17T12:00:43.629Z,17.20
2017-11-17T12:03:11.924Z,18.10
2017-11-17T12:05:40.193Z,15.90
2017-11-17T12:08:08.480Z,17.37
2017-11-17T12:10:35.990Z,16.05
2017-11-17T12:13:03.520Z,17.48
2017-11-17T12:15:31.021Z,16.08
2017-11-17T12:17:58.559Z,15.32
2017-11-17T12:20:26.084Z,17.35
2017-11-17T12:22:53.598Z,17.52
2017-11-17T12:25:21.141Z,18.50
2017-11-17T12:27:48.677Z,16.90
2017-11-17T12:30:16.177Z,19.10
2017-11-17T12:32:43.685Z,18.48
2017-11-17T12:35:11.204Z,17.87
2017-11-17T12:37:39.476Z,22.50
2017-11-17T12:40:06.977Z,31.73
2017-11-17T12:42:34.500Z,23.20
2017-11-17T12:45:02.765Z,24.55
2017-11-17T12:47:30.267Z,34.83
2017-11-17T12:49:57.792Z,18.80
2017-11-17T12:52:26.057Z,21.37
2017-11-17T12:54:53.556Z,17.02
2017-11-17T12:57:21.074Z,16.20
2017-11-17T12:59:48.589Z,13.40
2017-11-17T13:02:16.108Z,15.82
2017-11-17T13:04:44.376Z,15.32
2017-11-17T13:07:12.645Z,14.73
2017-11-17T13:09:40.153Z,14.38
2017-11-17T13:12:07.668Z,13.30
2017-11-17T13:14:35.936Z,14.07
2017-11-17T13:17:03.478Z,13.13
2017-11-17T13:19:30.998Z,13.45
2017-11-17T13:21:58.508Z,13.93
2017-11-17T13:24:26.033Z,15.27
2017-11-17T13:26:53.545Z,15.45
2017-11-17T13:29:21.813Z,16.48
2017-11-17T13:31:50.104Z,14.75
2017-11-17T13:34:18.377Z,14.27
2017-11-17T13:36:46.640Z,14.87
2017-11-17T13:39:14.161Z,15.88
2017-11-17T13:41:41.665Z,15.40
2017-11-17T13:44:09.949Z,19.42
2017-11-17T13:46:38.220Z,18.12
2017-11-17T13:49:06.481Z,14.98
2017-11-17T13:51:34.009Z,16.92
2017-11-17T13:54:01.529Z,16.40
2017-11-17T13:56:29.072Z,17.33
2017-11-17T13:58:57.361Z,17.80
2017-11-17T14:01:25.660Z,17.77
2017-11-17T14:03:53.153Z,16.55
2017-11-17T14:06:20.657Z,16.62
2017-11-17T14:08:48.934Z,17.40
2017-11-17T14:11:16.447Z,17.75
2017-11-17T14:13:43.940Z,18.90
2017-11-17T14:16:12.225Z,17.92
2017-11-17T14:18:40.491Z,18.70
2017-11-17T14:21:08.768Z,17.55
2017-11-17T14:23:37.033Z,18.50
2017-11-17T14:26:05.324Z,16.87
2017-11-17T14:28:33.585Z,17.98
2017-11-17T14:31:01.082Z,18.45
2017-11-17T14:33:28.584Z,17.37
2017-11-17T14:35:56.100Z,18.75
2017-11-17T14:38:23.632Z,17.60
2017-11-17T14:40:51.896Z,16.87
2017-11-17T14:43:20.174Z,18.12
2017-11-17T14:45:48.465Z,17.77
2017-11-17T14:48:16.733Z,15.95
2017-11-17T14:50:45.019Z,15.77
2017-11-17T14:53:12.544Z,18.00
2017-11-17T14:55:41.556Z,18.62
2017-11-17T14:58:09.840Z,16.92
2017-11-17T15:00:38.124Z,17.33
2017-11-17T15:03:06.393Z,18.80
2017-11-17T15:05:34.660Z,17.98
2017-11-17T15:08:02.931Z,18.98
2017-11-17T15:10:30.449Z,17.58
2017-11-17T15:12:57.957Z,17.12
2017-11-17T15:15:26.249Z,17.50
2017-11-17T15:17:54.515Z,18.48
2017-11-17T15:20:22.801Z,17.80
2017-11-17T15:22:51.068Z,18.52
2017-11-17T15:25:19.337Z,16.33
2017-11-17T15:27:47.629Z,16.77
2017-11-17T15:30:15.919Z,15.60
2017-11-17T15:32:43.437Z,17.55
2017-11-17T15:35:12.470Z,18.35
2017-11-17T15:37:39.985Z,19.15
2017-11-17T15:40:07.484Z,19.23
2017-11-17T15:42:34.997Z,17.58
2017-11-17T15:45:04.047Z,16.60
2017-11-17T15:47:31.568Z,17.58
2017-11-17T15:49:59.838Z,19.40
2017-11-17T15:52:27.384Z,16.35
2017-11-17T15:54:54.852Z,17.62
2017-11-17T15:57:22.393Z,17.37
2017-11-17T15:59:49.906Z,17.00
2017-11-17T16:02:17.448Z,19.23
2017-11-17T16:04:45.740Z,16.30
2017-11-17T16:07:13.248Z,16.95
2017-11-17T16:09:40.754Z,16.77
2017-11-17T16:12:09.037Z,17.92
2017-11-17T16:14:36.538Z,17.23
2017-11-17T16:17:04.053Z,18.27
2017-11-17T16:19:31.557Z,17.10
2017-11-17T16:21:59.057Z,18.80
2017-11-17T16:24:27.332Z,17.48
2017-11-17T16:26:55.631Z,18.35
2017-11-17T16:29:23.129Z,16.62
2017-11-17T16:31:50.625Z,18.65
2017-11-17T16:34:18.904Z,18.83
2017-11-17T16:36:47.189Z,18.20
2017-11-17T16:39:14.692Z,17.90
2017-11-17T16:41:42.192Z,16.87
2017-11-17T16:44:10.456Z,19.02
2017-11-17T16:46:37.961Z,18.73
2017-11-17T16:49:05.460Z,18.45
2017-11-17T16:51:32.981Z,20.17
2017-11-17T16:54:00.493Z,19.30
2017-11-17T16:56:28.776Z,18.50
2017-11-17T16:58:57.057Z,19.27
2017-11-17T17:01:25.338Z,18.35
2017-11-17T17:03:53.627Z,19.15
2017-11-17T17:06:21.153Z,19.17
2017-11-17T17:08:49.436Z,20.40
2017-11-17T17:11:17.703Z,18.45
2017-11-17T17:13:45.221Z,18.42
2017-11-17T17:16:12.717Z,19.65
2017-11-17T17:18:40.232Z,18.95
2017-11-17T17:21:07.874Z,19.50
2017-11-17T17:23:35.379Z,18.27
2017-11-17T17:26:02.903Z,19.92
2017-11-17T17:28:30.401Z,19.00
2017-11-17T17:30:57.919Z,18.75
2017-11-17T17:33:25.436Z,18.20
2017-11-17T17:35:52.935Z,19.60
2017-11-17T17:38:20.482Z,19.58
2017-11-17T17:40:48.744Z,20.10
2017-11-17T17:43:17.005Z,18.65
2017-11-17T17:45:45.273Z,19.58
2017-11-17T17:48:13.652Z,18.77
2017-11-17T17:50:41.158Z,19.10
2017-11-17T17:53:08.665Z,21.02
2017-11-17T17:55:36.197Z,19.90
2017-11-17T17:58:03.693Z,20.58
2017-11-17T18:00:31.197Z,22.42
2017-11-17T18:02:58.724Z,21.15
2017-11-17T18:05:27.019Z,21.23
2017-11-17T18:07:54.532Z,23.33
2017-11-17T18:10:22.049Z,21.37
2017-11-17T18:12:49.568Z,21.20
2017-11-17T18:15:17.833Z,23.12
2017-11-17T18:17:45.356Z,22.25
2017-11-17T18:20:12.873Z,21.30
2017-11-17T18:22:41.140Z,19.80
2017-11-17T18:25:09.416Z,20.80
2017-11-17T18:27:37.698Z,24.17
2017-11-17T18:30:05.997Z,19.48
2017-11-17T18:32:33.520Z,23.30
2017-11-17T18:35:01.791Z,20.02
2017-11-17T18:37:29.300Z,22.15
2017-11-17T18:39:56.808Z,22.27
2017-11-17T18:42:25.128Z,24.10
2017-11-17T18:44:53.388Z,23.20
2017-11-17T18:47:21.654Z,21.92
2017-11-17T18:49:49.992Z,22.75
2017-11-17T18:52:17.452Z,23.23
2017-11-17T18:54:44.948Z,23.50
2017-11-17T18:57:13.220Z,22.52
2017-11-17T18:59:41.500Z,22.95
2017-11-17T19:02:09.815Z,22.77
2017-11-17T19:04:38.092Z,22.27
2017-11-17T19:07:05.588Z,24.12
2017-11-17T19:09:33.093Z,23.33
2017-11-17T19:12:00.592Z,24.90
2017-11-17T19:14:28.089Z,24.85
2017-11-17T19:16:56.386Z,24.25
2017-11-17T19:19:23.881Z,21.42
2017-11-17T19:21:51.377Z,24.27
2017-11-17T19:24:19.644Z,20.98
2017-11-17T19:26:47.147Z,23.98
2017-11-17T19:29:14.660Z,23.42
2017-11-17T19:31:42.163Z,23.65
2017-11-17T19:34:09.669Z,25.30
2017-11-17T19:36:37.168Z,23.87
2017-11-17T19:39:04.681Z,21.08
2017-11-17T19:41:32.184Z,23.27
2017-11-17T19:43:59.693Z,22.70
2017-11-17T19:46:27.194Z,21.77
2017-11-17T19:48:54.721Z,23.38
2017-11-17T19:51:22.225Z,23.90
2017-11-17T19:53:49.741Z,22.62
2017-11-17T19:56:17.247Z,23.15
2017-11-17T19:58:44.786Z,24.30
2017-11-17T20:01:12.354Z,25.75
2017-11-17T20:03:39.819Z,25.25
2017-11-17T20:06:07.334Z,24.10
2017-11-17T20:08:36.797Z,23.85
2017-11-17T20:11:04.779Z,25.00
2017-11-17T20:13:32.280Z,26.00
2017-11-17T20:16:00.553Z,25.58
2017-11-17T20:18:28.829Z,25.70
2017-11-17T20:20:57.110Z,27.23
2017-11-17T20:23:25.377Z,25.23
2017-11-17T20:25:53.660Z,27.58
2017-11-17T20:28:21.929Z,27.40
2017-11-17T20:30:49.461Z,30.73
2017-11-17T20:33:16.981Z,26.92
2017-11-17T20:35:44.489Z,26.98
2017-11-17T20:38:12.008Z,26.45
2017-11-17T20:40:39.505Z,25.35
2017-11-17T20:43:07.023Z,27.55
2017-11-17T20:45:34.546Z,27.52
2017-11-17T20:48:02.815Z,27.30
2017-11-17T20:50:30.321Z,26.05
2017-11-17T20:52:58.692Z,26.35
2017-11-17T20:55:26.193Z,24.58
2017-11-17T20:57:54.517Z,24.67
2017-11-17T21:00:22.012Z,24.77
2017-11-17T21:02:49.520Z,25.65
2017-11-17T21:05:17.796Z,23.90
2017-11-17T21:07:46.073Z,22.35
2017-11-17T21:10:14.341Z,25.05
2017-11-17T21:12:42.621Z,23.80
2017-11-17T21:15:10.882Z,24.63
2017-11-17T21:17:38.384Z,24.75
2017-11-17T21:20:05.900Z,23.65
2017-11-17T21:22:33.417Z,25.15
2017-11-17T21:25:00.918Z,24.52
2017-11-17T21:27:28.418Z,25.08
2017-11-17T21:29:55.930Z,26.30
2017-11-17T21:32:23.453Z,25.52
2017-11-17T21:34:50.953Z,26.12
2017-11-17T21:37:18.455Z,27.70
2017-11-17T21:39:45.980Z,25.30
2017-11-17T21:42:14.262Z,26.20
2017-11-17T21:44:42.534Z,24.65
2017-11-17T21:47:10.817Z,26.87
2017-11-17T21:49:39.100Z,24.25
2017-11-17T21:52:07.383Z,25.60
2017-11-17T21:54:34.896Z,25.90
2017-11-17T21:57:02.400Z,24.70
2017-11-17T21:59:29.914Z,28.00
2017-11-17T22:01:57.409Z,26.50
2017-11-17T22:04:25.669Z,28.62
2017-11-17T22:06:53.941Z,26.20
2017-11-17T22:09:22.216Z,26.05
2017-11-17T22:11:49.732Z,27.90
2017-11-17T22:14:17.249Z,25.12
2017-11-17T22:16:45.516Z,23.62
2017-11-17T22:19:13.787Z,23.90
2017-11-17T22:21:42.064Z,25.80
2017-11-17T22:24:10.354Z,25.92
2017-11-17T22:26:38.616Z,29.02
2017-11-17T22:29:06.116Z,24.73
2017-11-17T22:31:33.641Z,27.00
2017-11-17T22:34:01.909Z,26.02
2017-11-17T22:36:29.420Z,27.10
2017-11-17T22:38:56.921Z,25.48
2017-11-17T22:41:24.433Z,26.90
2017-11-17T22:43:51.944Z,25.30
2017-11-17T22:46:20.221Z,27.13
2017-11-17T22:48:48.488Z,24.90
2017-11-17T22:51:15.986Z,24.27
2017-11-17T22:53:43.488Z,24.85
2017-11-17T22:56:10.985Z,22.30
2017-11-17T22:58:38.494Z,27.33
2017-11-17T23:01:06.009Z,25.65
2017-11-17T23:03:33.509Z,24.00
2017-11-17T23:06:01.021Z,25.88
2017-11-17T23:08:29.380Z,26.25
2017-11-17T23:10:58.185Z,22.17
2017-11-17T23:13:26.448Z,23.67
2017-11-17T23:15:54.722Z,25.73
2017-11-17T23:18:22.222Z,24.17
2017-11-17T23:20:49.733Z,26.50
2017-11-17T23:23:17.250Z,23.40
2017-11-17T23:25:44.769Z,26.75
2017-11-17T23:28:13.032Z,25.30
2017-11-17T23:30:40.525Z,26.08
2017-11-17T23:33:08.029Z,24.60
2017-11-17T23:35:35.533Z,24.92
2017-11-17T23:38:03.037Z,26.17
2017-11-17T23:40:30.561Z,27.30
2017-11-17T23:42:58.061Z,24.50
2017-11-17T23:45:25.564Z,25.60
2017-11-17T23:47:53.080Z,25.55
2017-11-17T23:50:20.599Z,26.12
2017-11-17T23:52:48.101Z,25.30
2017-11-17T23:55:15.624Z,25.45
2017-11-17T23:57:43.142Z,27.48
